createdAt,value
2018-07-01T00:01:41.530Z,62.50
2018-07-01T00:04:11.023Z,63.10
2018-07-01T00:06:39.806Z,62.60
2018-07-01T00:09:09.274Z,63.70
2018-07-01T00:11:38.690Z,63.20
2018-07-01T00:14:07.465Z,63.50
2018-07-01T00:16:37.167Z,63.80
2018-07-01T00:19:06.543Z,63.20
2018-07-01T00:21:35.652Z,63.80
2018-07-01T00:24:04.389Z,63.80
2018-07-01T00:26:33.457Z,65.40
2018-07-01T00:29:02.551Z,65.10
2018-07-01T00:31:31.393Z,65.20
2018-07-01T00:34:00.133Z,65.30
2018-07-01T00:36:28.892Z,66.00
2018-07-01T00:38:58.038Z,66.20
2018-07-01T00:41:27.236Z,67.80
2018-07-01T00:43:56.172Z,67.60
2018-07-01T00:46:25.010Z,67.70
2018-07-01T00:48:53.828Z,66.80
2018-07-01T00:51:22.653Z,66.70
2018-07-01T00:53:51.874Z,68.40
2018-07-01T00:56:21.050Z,67.90
2018-07-01T00:58:49.882Z,67.80
2018-07-01T01:01:18.934Z,68.40
2018-07-01T01:03:48.216Z,68.30
2018-07-01T01:06:17.363Z,69.10
2018-07-01T01:08:46.548Z,68.80
2018-07-01T01:11:15.384Z,69.70
2018-07-01T01:13:44.469Z,69.40
2018-07-01T01:16:13.198Z,69.20
2018-07-01T01:18:41.977Z,70.00
2018-07-01T01:21:11.071Z,69.90
2018-07-01T01:23:41.046Z,70.40
2018-07-01T01:26:10.109Z,70.20
2018-07-01T01:28:39.499Z,70.60
2018-07-01T01:31:08.580Z,71.20
2018-07-01T01:33:38.036Z,71.50
2018-07-01T01:36:06.838Z,71.60
2018-07-01T01:38:37.957Z,71.30
2018-07-01T01:43:56.220Z,72.00
2018-07-01T01:46:29.751Z,71.90
2018-07-01T01:49:04.277Z,71.60
2018-07-01T01:51:37.262Z,71.70
2018-07-01T01:54:16.395Z,71.70
2018-07-01T01:56:50.152Z,71.00
2018-07-01T01:59:24.650Z,71.70
2018-07-01T02:02:57.579Z,72.00
2018-07-01T02:05:30.059Z,72.30
2018-07-01T02:08:12.980Z,72.40
2018-07-01T02:10:41.751Z,72.10
2018-07-01T02:13:11.282Z,72.30
2018-07-01T02:15:44.550Z,72.80
2018-07-01T02:18:14.027Z,72.90
2018-07-01T02:20:43.661Z,73.40
2018-07-01T02:23:23.362Z,73.10
2018-07-01T02:25:52.797Z,72.60
2018-07-01T02:28:22.223Z,72.50
2018-07-01T02:30:51.281Z,72.50
2018-07-01T02:33:20.355Z,73.60
2018-07-01T02:35:49.775Z,73.10
2018-07-01T02:38:19.218Z,72.90
2018-07-01T02:40:48.304Z,74.50
2018-07-01T02:43:17.782Z,73.60
2018-07-01T02:45:46.996Z,74.50
2018-07-01T02:48:16.120Z,73.60
2018-07-01T02:50:45.006Z,73.50
2018-07-01T02:53:14.271Z,73.80
2018-07-01T02:55:43.667Z,73.80
2018-07-01T02:58:12.906Z,73.60
2018-07-01T03:00:43.781Z,73.20
2018-07-01T03:03:12.987Z,73.90
2018-07-01T03:05:42.163Z,74.30
2018-07-01T03:08:11.912Z,73.90
2018-07-01T03:10:40.725Z,73.80
2018-07-01T03:13:10.145Z,74.50
2018-07-01T03:15:39.255Z,73.70
2018-07-01T03:18:08.327Z,73.30
2018-07-01T03:20:37.463Z,72.30
2018-07-01T03:23:06.225Z,73.00
2018-07-01T03:25:35.647Z,73.10
2018-07-01T03:28:04.430Z,73.10
2018-07-01T03:30:34.143Z,73.10
2018-07-01T03:33:02.924Z,72.60
2018-07-01T03:35:31.984Z,72.10
2018-07-01T03:38:01.107Z,71.40
2018-07-01T03:40:29.913Z,67.30
2018-07-01T03:42:59.014Z,61.50
2018-07-01T03:45:28.102Z,57.40
2018-07-01T03:47:57.556Z,55.50
2018-07-01T03:50:26.370Z,54.90
2018-07-01T03:52:55.194Z,55.20
2018-07-01T03:55:24.364Z,56.50
2018-07-01T03:57:53.218Z,56.70
2018-07-01T04:00:22.398Z,57.10
2018-07-01T04:02:51.426Z,57.50
2018-07-01T04:05:20.325Z,57.00
2018-07-01T04:07:49.930Z,56.80
2018-07-01T04:10:19.251Z,56.30
2018-07-01T04:12:48.077Z,55.20
2018-07-01T04:15:17.497Z,55.20
2018-07-01T04:17:46.577Z,54.80
2018-07-01T04:20:16.162Z,54.10
2018-07-01T04:22:44.917Z,53.10
2018-07-01T04:25:14.384Z,52.30
2018-07-01T04:27:44.032Z,50.40
2018-07-01T04:30:13.739Z,48.40
2018-07-01T04:32:43.708Z,44.50
2018-07-01T04:35:12.988Z,41.50
2018-07-01T04:37:42.270Z,37.70
2018-07-01T04:40:11.970Z,37.60
2018-07-01T04:42:41.265Z,35.50
2018-07-01T04:45:10.890Z,36.20
2018-07-01T04:47:40.181Z,35.50
2018-07-01T04:50:10.162Z,34.80
2018-07-01T04:52:39.786Z,34.90
2018-07-01T04:55:09.121Z,35.80
2018-07-01T04:57:39.358Z,34.50
2018-07-01T05:00:09.414Z,33.70
2018-07-01T05:02:39.099Z,33.30
2018-07-01T05:05:08.728Z,32.80
2018-07-01T05:07:38.055Z,33.70
2018-07-01T05:10:07.373Z,32.10
2018-07-01T05:12:36.680Z,32.10
2018-07-01T05:15:06.407Z,31.50
2018-07-01T05:17:35.822Z,31.80
2018-07-01T05:20:05.213Z,33.70
2018-07-01T05:22:34.699Z,34.30
2018-07-01T05:25:04.256Z,32.00
2018-07-01T05:27:34.155Z,34.30
2018-07-01T05:30:04.304Z,37.30
2018-07-01T05:32:33.742Z,35.70
2018-07-01T05:35:03.532Z,34.10
2018-07-01T05:37:33.420Z,31.50
2018-07-01T05:40:03.066Z,31.00
2018-07-01T05:42:32.714Z,31.90
2018-07-01T05:47:32.205Z,30.20
2018-07-01T05:50:02.417Z,29.50
2018-07-01T05:52:32.031Z,29.30
2018-07-01T05:55:01.455Z,29.80
2018-07-01T05:57:30.720Z,30.10
2018-07-01T05:59:59.911Z,28.90
2018-07-01T06:02:29.663Z,29.40
2018-07-01T06:04:59.380Z,28.70
2018-07-01T06:07:28.729Z,29.20
2018-07-01T06:09:58.413Z,29.60
2018-07-01T06:12:28.307Z,30.30
2018-07-01T06:14:58.041Z,32.30
2018-07-01T06:19:56.787Z,30.10
2018-07-01T06:22:26.531Z,28.80
2018-07-01T06:24:55.918Z,29.40
2018-07-01T06:27:24.957Z,29.90
2018-07-01T06:29:54.570Z,32.30
2018-07-01T06:32:24.054Z,31.50
2018-07-01T06:34:53.504Z,34.90
2018-07-01T06:37:23.218Z,33.50
2018-07-01T06:39:53.260Z,37.90
2018-07-01T06:42:23.231Z,35.10
2018-07-01T06:44:53.000Z,32.50
2018-07-01T06:47:22.864Z,41.10
2018-07-01T06:49:52.536Z,40.80
2018-07-01T06:52:21.868Z,44.40
2018-07-01T06:54:51.680Z,47.30
2018-07-01T06:57:21.473Z,46.90
2018-07-01T06:59:50.333Z,47.60
2018-07-01T07:02:19.524Z,50.10
2018-07-01T07:04:48.731Z,51.20
2018-07-01T07:07:18.154Z,46.10
2018-07-01T07:09:47.987Z,37.00
2018-07-01T07:12:17.290Z,33.00
2018-07-01T07:14:47.038Z,34.20
2018-07-01T07:17:16.729Z,32.30
2018-07-01T07:19:46.395Z,31.80
2018-07-01T07:22:16.188Z,30.50
2018-07-01T07:24:46.179Z,30.00
2018-07-01T07:27:15.814Z,30.60
2018-07-01T07:29:45.181Z,36.20
2018-07-01T07:32:15.188Z,33.70
2018-07-01T07:34:44.839Z,32.30
2018-07-01T07:37:14.861Z,35.00
2018-07-01T07:39:44.150Z,40.10
2018-07-01T07:42:14.184Z,37.00
2018-07-01T07:44:43.564Z,33.10
2018-07-01T07:47:13.040Z,30.80
2018-07-01T07:49:42.356Z,28.60
2018-07-01T07:52:12.061Z,31.30
2018-07-01T07:54:41.948Z,29.80
2018-07-01T07:57:11.666Z,28.20
2018-07-01T07:59:41.895Z,29.80
2018-07-01T08:02:11.560Z,30.50
2018-07-01T08:04:41.247Z,35.10
2018-07-01T08:07:11.334Z,39.60
2018-07-01T08:09:40.622Z,45.40
2018-07-01T08:12:10.166Z,40.00
2018-07-01T08:14:40.423Z,38.50
2018-07-01T08:17:09.311Z,36.10
2018-07-01T08:19:38.848Z,34.30
2018-07-01T08:22:08.607Z,37.90
2018-07-01T08:24:37.802Z,42.70
2018-07-01T08:27:07.980Z,42.50
2018-07-01T08:29:37.347Z,43.40
2018-07-01T08:32:06.544Z,41.10
2018-07-01T08:34:35.507Z,44.30
2018-07-01T08:37:04.543Z,45.90
2018-07-01T08:39:34.504Z,44.50
2018-07-01T08:42:24.545Z,45.70
2018-07-01T08:44:54.303Z,44.00
2018-07-01T08:47:23.780Z,43.50
2018-07-01T08:49:52.921Z,41.90
2018-07-01T08:52:21.711Z,43.50
2018-07-01T08:54:50.703Z,41.70
2018-07-01T08:57:20.968Z,41.10
2018-07-01T08:59:50.315Z,40.60
2018-07-01T09:02:20.213Z,41.20
2018-07-01T09:04:55.624Z,41.80
2018-07-01T09:07:24.431Z,42.60
2018-07-01T09:09:53.210Z,41.70
2018-07-01T09:12:22.369Z,42.40
2018-07-01T09:14:51.537Z,45.00
2018-07-01T09:17:20.431Z,43.60
2018-07-01T09:19:49.584Z,42.50
2018-07-01T09:22:18.882Z,42.10
2018-07-01T09:24:48.089Z,43.10
2018-07-01T09:27:17.109Z,43.40
2018-07-01T09:29:52.000Z,41.60
2018-07-01T09:32:20.889Z,41.10
2018-07-01T09:34:49.872Z,40.80
2018-07-01T09:37:18.699Z,40.00
2018-07-01T09:39:47.938Z,40.60
2018-07-01T09:42:17.252Z,42.30
2018-07-01T09:47:15.534Z,44.10
2018-07-01T09:49:44.984Z,42.90
2018-07-01T09:52:14.337Z,45.50
2018-07-01T09:54:43.134Z,42.60
2018-07-01T09:57:12.484Z,42.60
2018-07-01T09:59:41.584Z,42.10
2018-07-01T10:02:10.689Z,40.60
2018-07-01T10:04:39.810Z,39.00
2018-07-01T10:07:08.595Z,38.70
2018-07-01T10:09:37.697Z,39.50
2018-07-01T10:12:06.883Z,40.70
2018-07-01T10:14:36.093Z,39.90
2018-07-01T10:17:05.015Z,38.70
2018-07-01T10:19:34.464Z,39.60
2018-07-01T10:22:03.349Z,41.20
2018-07-01T10:24:32.666Z,40.40
2018-07-01T10:27:01.833Z,37.70
2018-07-01T10:29:30.686Z,38.20
2018-07-01T10:31:59.671Z,37.90
2018-07-01T10:34:29.004Z,38.60
2018-07-01T10:36:58.029Z,38.10
2018-07-01T10:39:27.134Z,38.40
2018-07-01T10:41:56.465Z,38.90
2018-07-01T10:44:25.447Z,39.80
2018-07-01T10:46:55.364Z,39.90
2018-07-01T10:49:24.565Z,44.00
2018-07-01T10:51:53.450Z,40.30
2018-07-01T10:54:22.596Z,39.80
2018-07-01T10:56:52.062Z,41.90
2018-07-01T10:59:21.494Z,41.20
2018-07-01T11:01:50.655Z,40.90
2018-07-01T11:04:19.418Z,39.40
2018-07-01T11:06:48.491Z,40.40
2018-07-01T11:09:17.601Z,41.50
2018-07-01T11:11:46.437Z,41.00
2018-07-01T11:14:15.695Z,39.70
2018-07-01T11:16:44.850Z,41.30
2018-07-01T11:19:14.287Z,41.70
2018-07-01T11:21:43.422Z,40.80
2018-07-01T11:24:12.546Z,42.20
2018-07-01T11:26:42.093Z,39.10
2018-07-01T11:29:11.014Z,39.50
2018-07-01T11:31:40.231Z,40.60
2018-07-01T11:34:09.503Z,43.80
2018-07-01T11:36:38.643Z,41.30
2018-07-01T11:39:09.777Z,41.90
2018-07-01T11:41:39.556Z,41.90
2018-07-01T11:44:09.257Z,39.30
2018-07-01T11:46:38.716Z,41.70
2018-07-01T11:49:08.167Z,41.80
2018-07-01T11:51:37.818Z,43.80
2018-07-01T11:54:06.885Z,42.90
2018-07-01T11:56:36.776Z,42.40
2018-07-01T11:59:05.959Z,37.80
2018-07-01T12:01:35.107Z,41.30
2018-07-01T12:04:04.303Z,39.40
2018-07-01T12:06:33.090Z,38.30
2018-07-01T12:09:02.469Z,40.50
2018-07-01T12:11:31.472Z,40.90
2018-07-01T12:14:00.251Z,40.60
2018-07-01T12:16:29.000Z,40.10
2018-07-01T12:18:58.082Z,40.70
2018-07-01T12:21:27.005Z,40.40
2018-07-01T12:23:56.133Z,38.60
2018-07-01T12:26:25.031Z,38.60
2018-07-01T12:28:54.219Z,38.00
2018-07-01T12:31:23.930Z,38.40
2018-07-01T12:33:52.755Z,38.80
2018-07-01T12:36:22.287Z,39.80
2018-07-01T12:41:20.474Z,38.10
2018-07-01T12:43:49.556Z,41.00
2018-07-01T12:46:18.671Z,39.20
2018-07-01T12:48:47.850Z,41.30
2018-07-01T12:51:17.338Z,39.70
2018-07-01T12:53:46.507Z,40.70
2018-07-01T12:56:16.128Z,41.40
2018-07-01T12:58:46.752Z,41.80
2018-07-01T13:01:16.009Z,41.20
2018-07-01T13:03:45.523Z,41.20
2018-07-01T13:06:14.474Z,41.90
2018-07-01T13:08:43.456Z,43.40
2018-07-01T13:11:12.625Z,43.20
2018-07-01T13:13:41.449Z,41.50
2018-07-01T13:16:10.543Z,42.20
2018-07-01T13:18:39.388Z,42.30
2018-07-01T13:21:08.511Z,43.10
2018-07-01T13:23:37.626Z,43.90
2018-07-01T13:26:06.918Z,43.20
2018-07-01T13:28:36.046Z,43.60
2018-07-01T13:31:05.155Z,43.90
2018-07-01T13:33:34.364Z,43.70
2018-07-01T13:36:03.120Z,43.80
2018-07-01T13:38:35.491Z,42.60
2018-07-01T13:41:05.844Z,43.90
2018-07-01T13:43:34.645Z,45.30
2018-07-01T13:46:03.822Z,46.70
2018-07-01T13:48:33.255Z,46.50
2018-07-01T13:51:02.385Z,47.50
2018-07-01T13:53:31.471Z,46.70
2018-07-01T13:56:00.325Z,46.40
2018-07-01T13:58:30.182Z,47.00
2018-07-01T14:00:59.533Z,46.80
2018-07-01T14:03:28.821Z,47.10
2018-07-01T14:05:59.206Z,47.00
2018-07-01T14:08:28.484Z,47.60
2018-07-01T14:10:57.909Z,44.90
2018-07-01T14:13:27.029Z,47.10
2018-07-01T14:15:56.189Z,46.70
2018-07-01T14:18:25.712Z,47.00
2018-07-01T14:20:54.474Z,47.20
2018-07-01T14:23:23.576Z,46.40
2018-07-01T14:25:52.707Z,45.90
2018-07-01T14:28:21.466Z,46.40
2018-07-01T14:30:50.647Z,46.10
2018-07-01T14:33:19.930Z,47.30
2018-07-01T14:35:48.758Z,46.60
2018-07-01T14:40:46.655Z,48.70
2018-07-01T14:43:15.719Z,48.10
2018-07-01T14:45:44.518Z,49.30
2018-07-01T14:48:16.260Z,48.90
2018-07-01T14:50:45.304Z,48.50
2018-07-01T14:53:14.571Z,49.30
2018-07-01T14:55:43.406Z,50.50
2018-07-01T14:58:12.599Z,50.30
2018-07-01T15:00:41.474Z,50.30
2018-07-01T15:03:10.961Z,49.00
2018-07-01T15:05:42.867Z,47.30
2018-07-01T15:08:11.641Z,47.50
2018-07-01T15:10:40.437Z,47.30
2018-07-01T15:13:09.786Z,46.40
2018-07-01T15:15:39.130Z,46.70
2018-07-01T15:18:08.204Z,46.60
2018-07-01T15:20:38.284Z,46.50
2018-07-01T15:23:07.567Z,48.10
2018-07-01T15:28:04.932Z,47.50
2018-07-01T15:30:34.079Z,47.90
2018-07-01T15:33:02.887Z,49.10
2018-07-01T15:35:31.693Z,47.50
2018-07-01T15:38:00.490Z,48.10
2018-07-01T15:40:29.994Z,48.50
2018-07-01T15:42:59.191Z,48.60
2018-07-01T15:45:28.733Z,49.50
2018-07-01T15:47:57.944Z,48.80
2018-07-01T15:50:27.056Z,50.00
2018-07-01T15:52:56.012Z,49.00
2018-07-01T15:55:24.886Z,47.40
2018-07-01T15:57:54.049Z,48.10
2018-07-01T16:00:30.719Z,48.40
2018-07-01T16:03:00.535Z,48.80
2018-07-01T16:05:29.805Z,47.90
2018-07-01T16:07:59.994Z,46.60
2018-07-01T16:10:29.336Z,48.00
2018-07-01T16:12:58.173Z,47.90
2018-07-01T16:15:27.396Z,47.50
2018-07-01T16:17:56.333Z,47.90
2018-07-01T16:20:25.680Z,47.00
2018-07-01T16:22:54.976Z,48.10
2018-07-01T16:25:29.567Z,48.90
2018-07-01T16:28:04.483Z,48.50
2018-07-01T16:30:33.930Z,47.80
2018-07-01T16:33:02.846Z,47.60
2018-07-01T16:35:32.309Z,47.30
2018-07-01T16:38:01.454Z,45.70
2018-07-01T16:40:30.335Z,46.20
2018-07-01T16:42:59.094Z,46.60
2018-07-01T16:45:27.985Z,48.20
2018-07-01T16:47:57.283Z,47.60
2018-07-01T16:50:26.565Z,46.90
2018-07-01T16:52:55.533Z,46.20
2018-07-01T16:55:24.817Z,47.90
2018-07-01T16:57:54.497Z,47.60
2018-07-01T17:00:23.475Z,47.40
2018-07-01T17:02:52.874Z,46.70
2018-07-01T17:05:22.282Z,47.60
2018-07-01T17:07:51.846Z,47.70
2018-07-01T17:10:20.997Z,47.30
2018-07-01T17:12:50.153Z,47.60
2018-07-01T17:15:19.320Z,47.30
2018-07-01T17:17:48.434Z,47.60
2018-07-01T17:20:17.936Z,48.00
2018-07-01T17:22:46.737Z,47.10
2018-07-01T17:25:16.280Z,47.30
2018-07-01T17:27:45.494Z,48.30
2018-07-01T17:30:14.556Z,48.50
2018-07-01T17:32:48.673Z,49.50
2018-07-01T17:35:17.743Z,49.10
2018-07-01T17:37:46.783Z,50.00
2018-07-01T17:40:16.246Z,49.50
2018-07-01T17:42:45.152Z,50.30
2018-07-01T17:45:14.333Z,50.60
2018-07-01T17:47:43.164Z,49.70
2018-07-01T17:50:12.056Z,50.60
2018-07-01T17:55:16.583Z,51.30
2018-07-01T17:57:45.770Z,52.40
2018-07-01T18:00:15.154Z,53.00
2018-07-01T18:02:44.370Z,54.10
2018-07-01T18:05:13.189Z,54.50
2018-07-01T18:07:42.323Z,55.00
2018-07-01T18:10:12.435Z,55.00
2018-07-01T18:12:41.679Z,54.20
2018-07-01T18:15:10.766Z,54.10
2018-07-01T18:17:39.828Z,53.80
2018-07-01T18:20:10.752Z,54.20
2018-07-01T18:23:09.761Z,53.50
2018-07-01T18:25:12.018Z,54.20
2018-07-01T18:27:42.927Z,54.60
2018-07-01T18:30:08.848Z,54.90
2018-07-01T18:32:38.034Z,55.00
2018-07-01T18:35:07.029Z,55.30
2018-07-01T18:37:36.046Z,55.20
2018-07-01T18:40:05.407Z,55.50
2018-07-01T18:42:34.489Z,55.20
2018-07-01T18:45:03.494Z,55.10
2018-07-01T18:47:32.533Z,54.60
2018-07-01T18:50:01.817Z,54.30
2018-07-01T18:52:31.351Z,54.40
2018-07-01T18:55:01.053Z,54.70
2018-07-01T18:57:30.524Z,54.70
2018-07-01T18:59:59.740Z,55.00
2018-07-01T19:02:29.127Z,54.80
2018-07-01T19:04:58.499Z,55.40
2018-07-01T19:07:27.516Z,55.30
2018-07-01T19:09:56.822Z,55.50
2018-07-01T19:12:26.042Z,55.30
2018-07-01T19:14:55.510Z,54.60
2018-07-01T19:17:24.383Z,55.50
2018-07-01T19:19:55.138Z,54.80
2018-07-01T19:22:25.089Z,54.70
2018-07-01T19:24:54.789Z,54.70
2018-07-01T19:27:23.863Z,54.70
2018-07-01T19:29:53.651Z,55.00
2018-07-01T19:32:24.749Z,54.60
2018-07-01T19:34:54.974Z,54.40
2018-07-01T19:37:25.340Z,55.10
2018-07-01T19:39:55.829Z,55.40
2018-07-01T19:42:25.505Z,54.90
2018-07-01T19:44:55.752Z,55.50
2018-07-01T19:47:25.556Z,54.70
2018-07-01T19:49:55.837Z,55.90
2018-07-01T19:52:25.108Z,55.00
2018-07-01T19:54:54.882Z,55.00
2018-07-01T19:57:25.431Z,54.00
2018-07-01T19:59:57.553Z,54.90
2018-07-01T20:02:27.502Z,54.60
2018-07-01T20:04:57.444Z,55.30
2018-07-01T20:07:27.359Z,54.50
2018-07-01T20:09:56.862Z,54.40
2018-07-01T20:12:30.556Z,54.40
